15 | 12 | 2019

Daten Vortag

Wetterdaten von 10m Höhe gemessen, Station2 

Datum / Zeit Intervall min Luftfeuchte % Temperatur °C absolut Luftdruck hPa Wind m/s Windbö m/s Richtung Relative Luftdruck hPa Taupunkt °C Windchill °C Niederschlag mm
14-12-2019 00:11 5 81 1.8 980.1 2.5 3.6 S 984.0 -1.1 1.8 0.0
14-12-2019 00:21 5 81 1.8 980.2 0.0 1.1 SE 984.1 -1.1 1.8 0.0
14-12-2019 00:26 5 81 1.8 980.3 0.0 0.0 SSE 984.2 -1.1 1.8 0.0
14-12-2019 00:31 5 81 1.8 980.2 3.6 5.0 SE 984.1 -1.1 1.8 0.0
14-12-2019 00:36 5 81 1.8 980.1 3.6 5.0 E 984.0 -1.1 1.8 0.0
14-12-2019 00:41 5 81 1.8 980.2 0.0 0.0 E 984.1 -1.1 1.8 0.0
14-12-2019 00:46 5 81 1.8 980.1 0.0 0.0 E 984.0 -1.1 1.8 0.0
14-12-2019 00:51 5 81 1.8 979.9 3.6 5.0 SE 983.8 -1.1 1.8 0.0
14-12-2019 00:56 5 81 1.8 979.9 0.0 0.0 SE 983.8 -1.1 1.8 0.0
14-12-2019 01:01 5 81 1.9 980.0 0.0 0.0 E 983.9 -1.0 1.9 0.0
14-12-2019 01:06 5 81 1.9 979.9 0.0 0.0 S 983.8 -1.0 1.9 0.0
14-12-2019 01:11 5 81 1.9 979.8 0.0 0.0 E 983.7 -1.0 1.9 0.0
14-12-2019 01:16 5 82 1.9 979.8 0.0 0.0 SE 983.7 -0.8 1.9 0.0
14-12-2019 01:21 5 82 1.9 979.8 0.0 0.0 SE 983.7 -0.8 1.9 0.0
14-12-2019 01:26 5 82 1.9 979.6 2.5 5.0 E 983.5 -0.8 1.9 0.0
14-12-2019 01:31 5 82 1.9 979.7 0.0 0.0 S 983.6 -0.8 1.9 0.0
14-12-2019 01:36 5 82 1.9 979.7 0.0 0.0 SSE 983.6 -0.8 1.9 0.0
14-12-2019 01:41 5 82 1.9 979.7 0.0 0.0 SE 983.6 -0.8 1.9 0.0
14-12-2019 01:46 5 82 1.9 979.6 0.0 0.0 E 983.5 -0.8 1.9 0.0
14-12-2019 01:51 5 82 1.9 979.6 0.0 0.0 SE 983.5 -0.8 1.9 0.0
14-12-2019 01:56 5 82 1.9 979.5 0.0 0.0 SE 983.4 -0.8 1.9 0.0
14-12-2019 02:01 5 82 1.9 979.4 2.5 5.0 SE 983.3 -0.8 1.9 0.0
14-12-2019 02:06 5 82 1.9 979.6 3.6 6.1 E 983.5 -0.8 1.9 0.0
14-12-2019 02:11 5 82 1.9 979.6 3.6 6.1 E 983.5 -0.8 1.9 0.0
14-12-2019 02:16 5 83 1.9 979.5 3.6 6.1 SE 983.4 -0.7 1.9 0.0
14-12-2019 02:21 5 83 2.0 979.5 3.6 5.0 S 983.4 -0.6 2.0 0.0
14-12-2019 02:26 5 83 2.0 979.4 0.0 0.0 S 983.3 -0.6 2.0 0.0
14-12-2019 02:31 5 83 2.0 979.4 0.0 0.0 SE 983.3 -0.6 2.0 0.0
14-12-2019 02:36 5 83 2.0 979.4 3.6 6.1 SE 983.3 -0.6 2.0 0.0
14-12-2019 02:41 5 83 2.0 979.5 3.6 6.1 S 983.4 -0.6 2.0 0.0
14-12-2019 02:46 5 83 2.0 979.3 1.1 2.5 SE 983.2 -0.6 2.0 0.0
14-12-2019 02:51 5 83 2.0 979.2 5.0 8.6 SE 983.1 -0.6 2.0 0.0
14-12-2019 02:56 5 84 2.0 979.2 5.0 6.1 SE 983.1 -0.4 2.0 0.0
14-12-2019 03:01 5 84 2.0 979.1 6.1 9.7 S 983.0 -0.4 2.0 0.0
14-12-2019 03:06 5 84 2.0 979.0 2.5 5.0 SE 982.9 -0.4 2.0 0.0
14-12-2019 03:11 5 84 2.0 978.9 3.6 5.0 SE 982.8 -0.4 2.0 0.0
14-12-2019 03:16 5 84 2.0 979.1 2.5 3.6 S 983.0 -0.4 2.0 0.0
14-12-2019 03:21 5 84 2.1 978.9 5.0 6.1 S 982.8 -0.3 2.1 0.0
14-12-2019 03:26 5 84 2.1 978.9 6.1 7.2 S 982.8 -0.3 2.1 0.0
14-12-2019 03:31 5 84 2.1 978.9 3.6 6.1 S 982.8 -0.3 2.1 0.0
14-12-2019 03:36 5 84 2.1 978.8 3.6 6.1 S 982.7 -0.3 2.1 0.0
14-12-2019 03:41 5 84 2.1 978.8 6.1 7.2 S 982.7 -0.3 2.1 0.0
14-12-2019 03:46 5 84 2.1 978.9 3.6 5.0 S 982.8 -0.3 2.1 0.0
14-12-2019 03:51 5 84 2.1 978.9 3.6 6.1 SSW 982.8 -0.3 2.1 0.0
14-12-2019 03:56 5 84 2.1 979.0 3.6 6.1 SSE 982.9 -0.3 2.1 0.0
14-12-2019 04:01 5 84 2.1 978.7 2.5 3.6 S 982.6 -0.3 2.1 0.0
14-12-2019 04:06 5 84 2.1 978.6 2.5 5.0 S 982.5 -0.3 2.1 0.0
14-12-2019 04:11 5 84 2.1 978.8 2.5 5.0 S 982.7 -0.3 2.1 0.0
14-12-2019 04:16 5 84 2.1 978.7 3.6 5.0 S 982.6 -0.3 2.1 0.3
14-12-2019 04:21 5 84 2.1 978.6 6.1 9.7 SE 982.5 -0.3 2.1 0.3
14-12-2019 04:26 5 84 2.0 978.5 1.1 3.6 S 982.4 -0.4 2.0 0.3
14-12-2019 04:31 5 84 2.0 978.6 5.0 6.1 SE 982.5 -0.4 2.0 0.3
14-12-2019 04:36 5 84 2.0 978.6 3.6 5.0 S 982.5 -0.4 2.0 0.3
14-12-2019 04:41 5 84 1.9 978.5 5.0 7.2 SE 982.4 -0.5 1.9 0.3
14-12-2019 04:46 5 84 1.8 978.6 3.6 5.0 SE 982.5 -0.6 1.8 0.3
14-12-2019 04:51 5 84 1.7 978.6 2.5 3.6 S 982.5 -0.7 1.7 0.3
14-12-2019 04:56 5 84 1.7 978.6 3.6 5.0 S 982.5 -0.7 1.7 0.3
14-12-2019 05:01 5 84 1.7 978.4 2.5 5.0 S 982.3 -0.7 1.7 0.3
14-12-2019 05:06 5 84 1.6 978.3 3.6 7.2 SW 982.2 -0.8 1.6 0.3
14-12-2019 05:11 5 84 1.7 978.4 3.6 6.1 SE 982.3 -0.7 1.7 0.6
14-12-2019 05:16 5 84 1.7 978.3 3.6 5.0 S 982.2 -0.7 1.7 0.3
14-12-2019 05:21 5 84 1.7 978.2 3.6 6.1 S 982.1 -0.7 1.7 0.3
14-12-2019 05:26 5 84 1.6 978.2 6.1 7.2 SE 982.1 -0.8 1.6 0.3
14-12-2019 05:31 5 85 1.6 978.1 2.5 5.0 S 982.0 -0.6 1.6 0.3
14-12-2019 05:36 5 85 1.6 978.1 5.0 7.2 S 982.0 -0.6 1.6 0.3
14-12-2019 05:41 5 85 1.6 978.0 2.5 5.0 E 981.9 -0.6 1.6 0.3
14-12-2019 05:46 5 85 1.7 978.2 5.0 7.2 S 982.1 -0.5 1.7 0.3
14-12-2019 05:51 5 85 1.7 978.0 3.6 6.1 SSE 981.9 -0.5 1.7 0.3
14-12-2019 05:56 5 85 1.7 977.9 3.6 6.1 SE 981.8 -0.5 1.7 0.3
14-12-2019 06:01 5 85 1.8 978.0 7.2 9.7 SSW 981.9 -0.5 0.3 0.6
14-12-2019 06:06 5 85 1.8 978.0 5.0 7.2 S 981.9 -0.5 1.8 0.6
14-12-2019 06:11 5 85 1.8 978.1 5.0 7.2 S 982.0 -0.5 1.8 0.3
14-12-2019 06:16 5 85 1.9 977.9 6.1 8.6 SE 981.8 -0.4 1.9 0.3
14-12-2019 06:21 5 85 1.9 977.9 5.0 7.2 SE 981.8 -0.4 1.9 0.3
14-12-2019 06:26 5 85 2.0 978.0 3.6 6.1 SW 981.9 -0.3 2.0 0.3
14-12-2019 06:31 5 85 2.0 978.0 3.6 6.1 S 981.9 -0.3 2.0 0.3
14-12-2019 06:36 5 85 2.0 978.0 3.6 5.0 S 981.9 -0.3 2.0 0.3
14-12-2019 06:41 5 85 2.1 978.1 2.5 5.0 SW 982.0 -0.2 2.1 0.3
14-12-2019 06:46 5 85 2.1 978.0 3.6 7.2 S 981.9 -0.2 2.1 0.3
14-12-2019 06:51 5 86 2.2 978.2 6.1 8.6 S 982.1 0.1 2.2 0.3
14-12-2019 06:56 5 86 2.2 978.1 6.1 7.2 SW 982.0 0.1 2.2 0.3
14-12-2019 07:01 5 86 2.3 978.1 6.1 7.2 SE 982.0 0.2 2.3 0.0
14-12-2019 07:06 5 86 2.3 978.1 7.2 9.7 S 982.0 0.2 0.8 0.0
14-12-2019 07:11 5 86 2.4 978.1 8.6 9.7 S 982.0 0.3 -0.3 0.0
14-12-2019 07:16 5 86 2.4 978.2 7.2 9.7 SE 982.1 0.3 0.9 0.0
14-12-2019 07:21 5 86 2.5 978.1 6.1 8.6 S 982.0 0.4 2.5 0.0
14-12-2019 07:26 5 86 2.6 978.1 6.1 7.2 SW 982.0 0.5 2.6 0.0
14-12-2019 07:31 5 86 2.7 978.2 5.0 7.2 SW 982.1 0.6 2.7 0.0
14-12-2019 07:36 5 86 2.7 978.2 2.5 3.6 SE 982.1 0.6 2.7 0.0
14-12-2019 07:41 5 86 2.7 978.1 3.6 5.0 S 982.0 0.6 2.7 0.0
14-12-2019 07:46 5 86 2.7 978.1 3.6 6.1 SE 982.0 0.6 2.7 0.0
14-12-2019 07:51 5 86 2.8 978.1 7.2 8.6 SSW 982.0 0.7 1.3 0.0
14-12-2019 07:56 5 86 2.8 978.2 3.6 6.1 S 982.1 0.7 2.8 0.0
14-12-2019 08:01 5 87 2.9 978.3 5.0 6.1 S 982.2 1.0 2.9 0.0
14-12-2019 08:06 5 87 2.9 978.3 2.5 6.1 S 982.2 1.0 2.9 0.0
14-12-2019 08:11 5 87 2.9 978.3 2.5 6.1 S 982.2 1.0 2.9 0.0
14-12-2019 08:16 5 87 3.1 978.3 5.0 7.2 SW 982.2 1.2 3.1 0.0
14-12-2019 08:21 5 87 3.2 978.6 5.0 7.2 S 982.5 1.2 3.2 0.0
14-12-2019 08:26 5 87 3.3 978.5 6.1 8.6 SSE 982.4 1.3 3.3 0.0
14-12-2019 08:31 5 87 3.3 978.6 9.7 12.2 S 982.5 1.3 0.0 0.0
14-12-2019 08:36 5 87 3.4 978.8 7.2 8.6 S 982.7 1.4 2.0 0.0
14-12-2019 08:41 5 87 3.5 978.9 11.2 15.8 SE 982.8 1.5 -0.7 0.0
14-12-2019 08:46 5 87 3.5 978.9 6.1 8.6 S 982.8 1.5 3.5 0.0
14-12-2019 08:51 5 87 3.6 978.9 5.0 6.1 SW 982.8 1.6 3.6 0.0
14-12-2019 08:56 5 87 3.6 978.9 6.1 7.2 S 982.8 1.6 3.6 0.0
14-12-2019 09:01 5 87 3.7 979.1 6.1 7.2 S 983.0 1.7 3.7 0.0
14-12-2019 09:06 5 87 3.7 979.0 7.2 9.7 SSE 982.9 1.7 2.3 0.0
14-12-2019 09:11 5 86 3.8 979.2 7.2 11.2 SE 983.1 1.7 2.4 0.0
14-12-2019 09:16 5 86 3.8 979.2 8.6 14.8 S 983.1 1.7 1.3 0.0
14-12-2019 09:21 5 86 3.9 979.2 8.6 11.2 S 983.1 1.8 1.4 0.0
14-12-2019 09:26 5 86 4.0 979.2 9.7 12.2 SW 983.1 1.9 0.7 0.0
14-12-2019 09:31 5 86 4.0 979.2 3.6 6.1 SW 983.1 1.9 4.0 0.0
14-12-2019 09:36 5 86 4.0 979.3 5.0 8.6 S 983.2 1.9 4.0 0.0
14-12-2019 09:41 5 86 4.0 979.3 5.0 7.2 S 983.2 1.9 4.0 0.0
14-12-2019 09:46 5 85 4.1 979.4 6.1 9.7 SE 983.3 1.8 4.1 0.0
14-12-2019 09:51 5 85 4.1 979.4 7.2 8.6 SW 983.3 1.8 2.7 0.0
14-12-2019 09:56 5 85 4.1 979.5 7.2 8.6 SE 983.4 1.8 2.7 0.0
14-12-2019 10:01 5 85 4.2 979.6 5.0 8.6 SE 983.5 1.9 4.2 0.0
14-12-2019 10:06 5 85 4.2 979.6 6.1 7.2 SSE 983.5 1.9 4.2 0.0
14-12-2019 10:11 5 85 4.2 979.6 6.1 7.2 SSE 983.5 1.9 4.2 0.0
14-12-2019 10:16 5 85 4.3 979.6 3.6 6.1 S 983.5 2.0 4.3 0.0
14-12-2019 10:21 5 85 4.4 979.7 2.5 3.6 S 983.6 2.1 4.4 0.0
14-12-2019 10:26 5 85 4.5 979.7 5.0 7.2 S 983.6 2.2 4.5 0.0
14-12-2019 10:31 5 85 4.5 979.6 3.6 5.0 S 983.5 2.2 4.5 0.3
14-12-2019 10:36 5 85 4.6 979.7 7.2 9.7 S 983.6 2.3 3.2 0.3
14-12-2019 10:41 5 84 4.7 979.7 7.2 9.7 S 983.6 2.2 3.3 0.3
14-12-2019 10:46 5 84 4.8 979.7 8.6 9.7 S 983.6 2.3 2.3 0.3
14-12-2019 10:51 5 84 4.8 979.7 8.6 11.2 SW 983.6 2.3 2.3 0.3
14-12-2019 10:56 5 83 4.9 979.6 11.2 15.8 SW 983.5 2.3 0.9 0.3
14-12-2019 11:01 5 83 5.0 979.6 8.6 9.7 SW 983.5 2.4 2.6 0.3
14-12-2019 11:06 5 83 5.0 979.5 6.1 8.6 S 983.4 2.4 5.0 0.3
14-12-2019 11:11 5 83 5.1 979.9 13.3 18.4 SE 983.8 2.5 0.0 0.3
14-12-2019 11:16 5 82 5.2 979.7 9.7 17.3 S 983.6 2.4 2.1 0.3
14-12-2019 11:21 5 83 5.2 979.9 8.6 12.2 S 983.8 2.6 2.8 0.3
14-12-2019 11:26 5 82 5.2 979.8 8.6 15.8 SSW 983.7 2.4 2.8 0.3
14-12-2019 11:31 5 82 5.3 979.9 7.2 11.2 SW 983.8 2.5 3.9 0.0
14-12-2019 11:36 5 82 5.3 979.8 11.2 15.8 NW 983.7 2.5 1.3 0.0
14-12-2019 11:41 5 82 5.3 980.0 13.3 17.3 S 983.9 2.5 0.2 0.0
14-12-2019 11:46 5 82 5.3 980.1 11.2 12.2 S 984.0 2.5 1.3 0.0
14-12-2019 11:51 5 82 5.3 980.1 12.2 15.8 S 984.0 2.5 0.7 0.0
14-12-2019 11:56 5 82 5.4 980.0 14.8 18.4 S 983.9 2.6 -0.3 0.0
14-12-2019 12:01 5 82 5.4 980.1 12.2 15.8 SW 984.0 2.6 0.9 0.0
14-12-2019 12:06 5 82 5.4 980.1 14.8 19.4 S 984.0 2.6 -0.3 0.0
14-12-2019 12:11 5 82 5.4 980.2 14.8 19.4 S 984.1 2.6 -0.3 0.0
14-12-2019 12:16 5 82 5.4 980.2 8.6 12.2 SW 984.1 2.6 3.0 0.0
14-12-2019 12:21 5 82 5.5 980.2 8.6 11.2 SW 984.1 2.7 3.1 0.0
14-12-2019 12:26 5 82 5.5 980.4 11.2 13.3 W 984.3 2.7 1.6 0.0
14-12-2019 12:31 5 82 5.5 980.5 7.2 12.2 SW 984.4 2.7 4.2 0.0
14-12-2019 12:36 5 82 5.5 980.5 14.8 18.4 SW 984.4 2.7 -0.2 0.0
14-12-2019 12:41 5 82 5.5 980.6 14.8 18.4 SW 984.5 2.7 -0.2 0.0
14-12-2019 12:41 5 82 5.5 980.7 11.2 12.2 SE 984.6 2.7 1.6 0.0
14-12-2019 12:50 5 82 5.5 980.7 14.8 18.4 SW 984.6 2.7 -0.2 0.0
14-12-2019 12:55 5 82 5.5 980.8 13.3 18.4 SW 984.7 2.7 0.4 0.0
14-12-2019 13:00 5 81 5.5 980.7 14.8 18.4 SW 984.6 2.5 -0.2 0.0
14-12-2019 13:05 5 81 5.5 980.8 13.3 17.3 SW 984.7 2.5 0.4 0.0
14-12-2019 13:10 5 81 5.5 981.0 11.2 13.3 SW 984.9 2.5 1.6 0.0
14-12-2019 13:15 5 81 5.5 981.1 17.3 20.9 S 985.0 2.5 -1.3 0.0
14-12-2019 13:20 5 81 5.5 981.1 13.3 15.8 SW 985.0 2.5 0.4 0.0
14-12-2019 13:25 5 81 5.5 981.1 11.2 14.8 SW 985.0 2.5 1.6 0.0
14-12-2019 13:30 5 81 5.5 981.2 13.3 15.8 SSW 985.1 2.5 0.4 0.0
14-12-2019 13:35 5 81 5.5 981.3 7.2 9.7 SW 985.2 2.5 4.2 0.0
14-12-2019 13:40 5 81 5.4 981.3 19.4 24.5 W 985.2 2.4 -2.2 0.0
14-12-2019 13:45 5 81 5.3 981.4 12.2 17.3 SW 985.3 2.3 0.7 0.0
14-12-2019 13:50 5 81 5.3 981.4 14.8 17.3 SW 985.3 2.3 -0.5 0.0
14-12-2019 13:55 5 81 5.2 981.4 20.9 28.1 SW 985.3 2.2 -2.9 0.3
14-12-2019 14:00 5 81 5.1 981.6 13.3 17.3 SW 985.5 2.1 0.0 0.3
14-12-2019 14:05 5 81 5.1 981.6 18.4 24.5 SW 985.5 2.1 -2.2 0.3
14-12-2019 14:10 5 81 5.1 981.6 18.4 24.5 SW 985.5 2.1 -2.2 0.3
14-12-2019 14:15 5 81 4.9 981.7 18.4 23.4 SW 985.6 1.9 -2.4 0.3
14-12-2019 14:20 5 81 4.9 981.9 8.6 11.2 SW 985.8 1.9 2.5 0.3
14-12-2019 14:25 5 81 4.8 982.0 11.2 14.8 W 985.9 1.8 0.8 0.3
14-12-2019 14:30 5 81 4.9 982.0 12.2 15.8 W 985.9 1.9 0.3 0.3
14-12-2019 14:35 5 81 4.9 982.1 9.7 14.8 SW 986.0 1.9 1.7 0.3
14-12-2019 14:40 5 82 4.9 982.1 14.8 18.4 SW 986.0 2.1 -1.0 0.3
14-12-2019 14:45 5 82 4.9 982.2 7.2 8.6 SW 986.1 2.1 3.5 0.3
14-12-2019 14:50 5 82 4.9 982.3 5.0 6.1 SW 986.2 2.1 4.9 0.3
14-12-2019 14:55 5 82 5.0 982.3 8.6 13.3 S 986.2 2.2 2.6 0.0
14-12-2019 15:00 5 82 5.2 982.3 9.7 13.3 SW 986.2 2.4 2.1 0.0
14-12-2019 15:05 5 81 5.2 982.4 8.6 12.2 S 986.3 2.2 2.8 0.0
14-12-2019 15:10 5 81 5.2 982.5 14.8 17.3 SW 986.4 2.2 -0.6 0.0
14-12-2019 15:15 5 81 5.3 982.6 12.2 15.8 SW 986.5 2.3 0.7 0.0
14-12-2019 15:20 5 81 5.3 982.6 11.2 14.8 S 986.5 2.3 1.3 0.0
14-12-2019 15:25 5 81 5.4 982.7 9.7 11.2 SW 986.6 2.4 2.3 0.0
14-12-2019 15:30 5 81 5.5 982.8 12.2 18.4 SW 986.7 2.5 1.0 0.0
14-12-2019 15:35 5 81 5.6 982.9 11.2 15.8 SW 986.8 2.6 1.7 0.0
14-12-2019 15:40 5 81 5.8 983.0 14.8 18.4 S 986.9 2.8 0.1 0.0
14-12-2019 15:45 5 80 5.9 982.9 12.2 15.8 SW 986.8 2.7 1.4 0.0
14-12-2019 15:50 5 80 5.9 983.0 15.8 19.4 SWW 986.9 2.7 -0.2 0.0
14-12-2019 15:55 5 80 5.9 983.1 12.2 15.8 S 987.0 2.7 1.4 0.0
14-12-2019 16:00 5 80 5.7 983.1 13.3 15.8 W 987.0 2.5 0.7 0.0
14-12-2019 16:05 5 79 5.7 983.2 12.2 14.8 SW 987.1 2.4 1.2 0.0
14-12-2019 16:10 5 79 5.7 983.2 12.2 14.8 SW 987.1 2.4 1.2 0.0
14-12-2019 16:15 5 79 5.6 983.3 17.3 22.0 S 987.2 2.3 -1.1 0.0
14-12-2019 16:20 5 79 5.6 983.5 11.2 14.8 SW 987.4 2.3 1.7 0.0
14-12-2019 16:25 5 79 5.6 983.6 13.3 17.3 NW 987.5 2.3 0.6 0.0
14-12-2019 16:30 5 79 5.7 983.6 18.4 25.6 SW 987.5 2.4 -1.4 0.0
14-12-2019 16:35 5 79 5.7 983.6 12.2 15.8 SSW 987.5 2.4 1.2 0.0
14-12-2019 16:40 5 78 5.7 983.8 17.3 19.4 SW 987.7 2.2 -1.0 0.0
14-12-2019 16:45 5 78 5.7 983.8 22.0 31.7 SW 987.7 2.2 -2.6 0.0
14-12-2019 16:50 5 77 5.7 984.0 22.0 29.5 SW 987.9 2.0 -2.6 0.0
14-12-2019 16:55 5 76 5.8 984.0 18.4 20.9 SW 987.9 1.9 -1.3 0.0
14-12-2019 17:00 5 76 5.8 984.1 14.8 19.4 SW 988.0 1.9 0.1 0.0
14-12-2019 17:05 5 75 5.8 984.0 13.3 17.3 SW 987.9 1.7 0.8 0.0
14-12-2019 17:10 5 75 5.7 984.1 13.3 17.3 W 988.0 1.6 0.7 0.0
14-12-2019 17:15 5 75 5.8 984.2 17.3 24.5 SW 988.1 1.7 -0.9 0.0
14-12-2019 17:20 5 75 5.8 984.2 24.5 28.1 SWW 988.1 1.7 -3.1 0.0
14-12-2019 17:25 5 75 5.8 984.5 13.3 18.4 W 988.4 1.7 0.8 0.0
14-12-2019 17:30 5 75 5.8 984.4 18.4 22.0 SW 988.3 1.7 -1.3 0.0
14-12-2019 17:35 5 75 5.8 984.4 15.8 22.0 W 988.3 1.7 -0.3 0.0
14-12-2019 17:40 5 75 5.7 984.4 15.8 18.4 SW 988.3 1.6 -0.4 0.0
14-12-2019 17:45 5 75 5.6 984.5 19.4 27.0 SW 988.4 1.5 -1.9 0.0
14-12-2019 17:50 5 76 5.6 984.7 17.3 22.0 SW 988.6 1.7 -1.1 0.0
14-12-2019 17:55 5 76 5.6 984.7 14.8 17.3 SW 988.6 1.7 -0.1 0.0
14-12-2019 18:00 5 75 5.6 984.7 23.4 28.1 SW 988.6 1.5 -3.1 0.0
14-12-2019 18:05 5 75 5.6 984.9 20.9 24.5 SW 988.8 1.5 -2.4 0.0
14-12-2019 18:10 5 75 5.6 984.7 20.9 24.5 SW 988.6 1.5 -2.4 0.0
14-12-2019 18:15 5 75 5.6 984.9 14.8 22.0 SW 988.8 1.5 -0.1 0.0
14-12-2019 18:20 5 75 5.6 984.9 19.4 25.6 SSW 988.8 1.5 -1.9 0.0
14-12-2019 18:25 5 74 5.7 985.0 15.8 22.0 SW 988.9 1.4 -0.4 0.0
14-12-2019 18:30 5 74 5.7 984.9 22.0 29.5 SW 988.8 1.4 -2.6 0.0
14-12-2019 18:35 5 74 5.7 984.9 13.3 23.4 W 988.8 1.4 0.7 0.0
14-12-2019 18:40 5 73 5.7 985.1 15.8 20.9 SW 989.0 1.2 -0.4 0.0
14-12-2019 18:45 5 74 5.6 985.1 15.8 22.0 SW 989.0 1.3 -0.6 0.0
14-12-2019 18:50 5 74 5.6 985.0 19.4 25.6 SW 988.9 1.3 -1.9 0.0
14-12-2019 18:55 5 75 5.5 984.9 19.4 23.4 S 988.8 1.4 -2.0 0.0
14-12-2019 19:00 5 75 5.5 985.1 22.0 28.1 SW 989.0 1.4 -2.8 0.0
14-12-2019 19:05 5 75 5.5 985.2 18.4 23.4 W 989.1 1.4 -1.7 0.0
14-12-2019 19:10 5 75 5.4 985.2 13.3 17.3 SW 989.1 1.3 0.3 0.0
14-12-2019 19:15 5 76 5.4 985.3 19.4 28.1 W 989.2 1.5 -2.2 0.0
14-12-2019 19:20 5 76 5.4 985.4 20.9 33.1 SW 989.3 1.5 -2.6 0.0
14-12-2019 19:25 5 76 5.4 985.4 22.0 25.6 SW 989.3 1.5 -3.0 0.0
14-12-2019 19:30 5 76 5.3 985.5 17.3 22.0 SWW 989.4 1.4 -1.5 0.0
14-12-2019 19:35 5 76 5.4 985.5 25.6 31.7 SW 989.4 1.5 -4.0 0.0
14-12-2019 19:40 5 76 5.5 985.7 18.4 23.4 SWW 989.6 1.6 -1.7 0.0
14-12-2019 19:45 5 76 5.6 985.6 23.4 29.5 SW 989.5 1.7 -3.1 0.0
14-12-2019 19:50 5 75 5.7 985.7 22.0 28.1 SW 989.6 1.6 -2.6 0.0
14-12-2019 19:55 5 75 5.6 985.7 19.4 22.0 SW 989.6 1.5 -1.9 0.0
14-12-2019 20:00 5 75 5.7 985.9 20.9 27.0 W 989.8 1.6 -2.2 0.0
14-12-2019 20:05 5 75 5.7 985.8 14.8 20.9 SSW 989.7 1.6 0.0 0.0
14-12-2019 20:10 5 75 5.7 986.0 14.8 20.9 SSW 989.9 1.6 0.0 0.0
14-12-2019 20:15 5 74 5.8 985.8 22.0 24.5 SSW 989.7 1.5 -2.4 0.0
14-12-2019 20:20 5 74 5.8 985.8 20.9 22.0 SW 989.7 1.5 -2.1 0.0
14-12-2019 20:25 5 74 5.9 986.0 11.2 14.8 W 989.9 1.6 2.0 0.0
14-12-2019 20:30 5 74 5.9 986.0 19.4 24.5 SW 989.9 1.6 -1.5 0.0
14-12-2019 20:35 5 74 5.9 986.2 17.3 22.0 SW 990.1 1.6 -0.8 0.0
14-12-2019 20:40 5 74 6.0 986.2 15.8 22.0 SW 990.1 1.7 -0.1 0.0
14-12-2019 20:45 5 73 6.0 986.3 19.4 22.0 SW 990.2 1.5 -1.4 0.0
14-12-2019 20:50 5 73 6.0 986.3 17.3 20.9 SW 990.2 1.5 -0.6 0.0
14-12-2019 20:55 5 73 6.1 986.3 19.4 24.5 SW 990.2 1.6 -1.3 0.0
14-12-2019 21:00 5 73 6.1 986.5 18.4 24.5 NW 990.4 1.6 -0.9 0.0
14-12-2019 21:05 5 73 6.1 986.6 24.5 29.5 SW 990.5 1.6 -2.7 0.0
14-12-2019 21:10 5 73 6.2 986.6 18.4 22.0 SW 990.5 1.7 -0.8 0.0
14-12-2019 21:15 5 73 6.2 986.7 15.8 19.4 W 990.6 1.7 0.2 0.0
14-12-2019 21:20 5 73 6.2 986.8 11.2 14.8 SW 990.7 1.7 2.4 0.0
14-12-2019 21:25 5 73 6.1 986.8 15.8 19.4 SW 990.7 1.6 0.0 0.0
14-12-2019 21:30 5 73 6.2 986.9 14.8 18.4 SW 990.8 1.7 0.6 0.0
14-12-2019 21:35 5 73 6.1 987.0 12.2 19.4 SW 990.9 1.6 1.7 0.0
14-12-2019 21:40 5 73 6.2 987.2 18.4 24.5 W 991.1 1.7 -0.8 0.0
14-12-2019 21:45 5 73 6.2 987.1 13.3 15.8 S 991.0 1.7 1.3 0.0
14-12-2019 21:50 5 73 6.2 987.3 15.8 20.9 SW 991.2 1.7 0.2 0.0
14-12-2019 21:55 5 73 6.2 987.4 15.8 19.4 W 991.3 1.7 0.2 0.0
14-12-2019 22:00 5 73 6.2 987.6 15.8 22.0 SW 991.5 1.7 0.2 0.0
14-12-2019 22:05 5 73 6.1 987.8 11.2 13.3 W 991.7 1.6 2.2 0.0
14-12-2019 22:10 5 73 6.1 987.9 11.2 13.3 W 991.8 1.6 2.2 0.0
14-12-2019 22:15 5 73 6.1 988.0 13.3 20.9 W 991.9 1.6 1.1 0.0
14-12-2019 22:20 5 73 6.2 988.0 12.2 15.8 W 991.9 1.7 1.8 0.0
14-12-2019 22:25 5 73 6.3 988.3 17.3 20.9 W 992.2 1.8 -0.3 0.0
14-12-2019 22:30 5 73 6.4 988.4 18.4 24.5 SW 992.3 1.9 -0.5 0.0
14-12-2019 22:35 5 73 6.4 988.6 20.9 25.6 SW 992.5 1.9 -1.3 0.0
14-12-2019 22:40 5 73 6.3 988.8 13.3 17.3 W 992.7 1.8 1.4 0.0
14-12-2019 22:45 5 73 6.3 988.8 15.8 19.4 SWW 992.7 1.8 0.3 0.0
14-12-2019 22:50 5 73 6.2 988.7 14.8 18.4 W 992.6 1.7 0.6 0.0
14-12-2019 22:55 5 73 6.2 989.1 15.8 19.4 SW 993.0 1.7 0.2 0.0
14-12-2019 23:00 5 73 6.1 989.2 12.2 17.3 NW 993.1 1.6 1.7 0.0
14-12-2019 23:05 5 73 6.1 989.2 14.8 19.4 W 993.1 1.6 0.5 0.0
14-12-2019 23:10 5 73 6.0 989.2 13.3 17.3 SW 993.1 1.5 1.0 0.0
14-12-2019 23:15 5 73 5.9 989.3 13.3 18.4 W 993.2 1.4 0.9 0.0
14-12-2019 23:20 5 73 5.8 989.5 15.8 25.6 W 993.4 1.3 -0.3 0.0
14-12-2019 23:25 5 74 5.8 989.5 14.8 17.3 SW 993.4 1.5 0.1 0.0
14-12-2019 23:30 5 74 5.8 989.6 14.8 20.9 SW 993.5 1.5 0.1 0.0
14-12-2019 23:35 5 74 5.7 989.8 18.4 22.0 SWW 993.7 1.4 -1.4 0.0
14-12-2019 23:40 5 74 5.7 989.9 22.0 30.6 SW 993.8 1.4 -2.6 0.0
14-12-2019 23:45 5 74 5.7 989.9 14.8 18.4 SW 993.8 1.4 0.0 0.0
14-12-2019 23:50 5 74 5.7 990.0 18.4 20.9 NW 993.9 1.4 -1.4 0.0
14-12-2019 23:55 5 74 5.8 990.1 14.8 18.4 SW 994.0 1.5 0.1 0.0

                                                                              Tabelle: 07 : 00 UHR

STATIONHÖHELUFTD.TEMP.T-MinT-MaxU%RR1RR12SSSDDFFFXWetter+WolkenBöen
UFS TW Ems 0 ------ --- --- --- --- ---- --- --- -- --- --- --- ---
UFS Deutsche Bucht 0 ------ --- --- --- --- ---- --- --- -- --- --- --- ---
Helgoland 4 977.5 6.2 3.4 6.6 87 0.0 1 0 SW 37 57 --- Windböen
List/Sylt 26 976.4 5.3 1.4 5.4 93 0.7 1 0 S 30 44 Regen ---
Schleswig 43 978.8 2.9 0.3 2.9 99 0.0 1 0 S 10 20 Regen ---
Leuchtturm Kiel 5 979.4 3.2 0.7 3.3 95 ---- --- --- S 35 45 --- ---
Kiel 27 979.5 3.2 0.7 3.2 97 0.0 2 0 S 13 24 --- ---
Fehmarn 3 980.4 2.8 1.0 2.8 95 0.0 2 0 S 16 24 Regen ---
Arkona 42 982.6 1.4 1.4 3.4 95 0.0 0 0 S 23 31 leichter Regen ---
Norderney 11 978.5 4.8 2.5 5.3 93 0.6 1 0 SW 27 46 leichter Regen ---
Leuchtt. Alte Weser 32 978.3 5.0 2.0 5.6 93 ---- --- --- SW 47 --- --- ---
Cuxhaven 5 979.1 4.8 1.2 5.0 92 0.0 1 0 S 18 36 leichter Regen ---
Hamburg-Flh. 11 980.7 4.9 1.2 4.9 89 0.0 2 0 SW 24 41 bedeckt ---
Schwerin 59 982.0 2.2 0.6 2.2 97 0.0 1 0 SW 16 27 Dunst oder flacher Nebel ---
Rostock 4 981.8 1.4 0.8 2.0 95 0.3 2 0 S 11 24 Schneefall ---
Greifswald 2 983.2 0.8 -0.6 2.4 96 0.4 0 0 S 6 16 leichter Schneefall ---
Emden 0 979.5 5.1 2.8 5.5 88 0.3 0 0 SW 23 40 Regen ---
Bremen-Flh. 5 980.8 5.2 2.1 5.5 88 0.0 1 0 S 18 28 stark bewölkt ---
Lüchow 17 ------ --- --- --- --- ---- --- --- -- --- ---   ---
Marnitz 81 983.0 1.4 0.2 1.4 98 ---- --- 0 SW 13 22 Dunst oder flacher Nebel ---
Waren 70 983.4 1.5 -0.4 1.6 97 0.0 1 0 S 17 27 Schneefall ---
Neuruppin 38 984.6 1.7 -0.2 1.7 98 0.1 1 0 S 9 16 --- ---
Angermünde 56 985.1 1.5 0.1 1.6 94 0.1 0 0 S 14 22 Regen ---
Münster/Osnabr.-Flh. 48 982.3 4.3 3.0 6.1 91 1.8 4 0 SW 16 22 leichter Regen ---
Hannover-Flh. 59 982.3 4.9 1.8 5.3 83 0.0 2 0 S 17 33 Regen ---
Magdeburg 76 984.7 4.2 1.7 4.3 82 0.0 1 0 S 13 23 --- ---
Potsdam 81 985.5 2.9 0.6 2.9 97 0.0 1 0 SW 21 34 stark bewölkt ---
Berlin-Tegel 37 985.6 2.9 1.7 3.0 96 0.0 0 0 S 14 21 Regen ---
Berlin-Tempelhof 48 985.8 3.3 1.8 3.3 95 0.0 1 --- S 12 19 --- ---
Berlin-Dahlem 51 986.0 2.9 1.4 2.9 --- ---- 1 0 SW 14 --- stark bewölkt ---
Lindenberg 91 986.9 3.3 0.3 3.3 98 0.0 3 0 SW 13 26 Regen ---
Düsseldorf-Flh. 45 982.4 4.5 4.4 6.7 98 0.3 5 0 NW 9 24 leichter Regen ---
Essen 150 982.2 3.3 3.2 5.6 97 0.9 7 0 N 8 27 Regen ---
Kahler Asten 839 ------ -1.0 -1.0 0.0 96 2.8 7 19 S 33 50 kräftiger Schneefall Windböen
Bad Lippspringe 157 982.7 3.8 2.4 5.1 87 0.7 5 0 S 12 26 leichter Regen ---
Fritzlar 174 983.4 3.4 2.0 4.6 89 ---- 0 0 S 29 --- leichter Regen ---
Brocken 1142 ------ -2.4 -3.6 -2.1 97 ---- 5 18 SW 56 86 leichter Schneefall Sturmböen
Leipzig-Flh. 142 986.6 3.8 1.7 4.4 84 0.0 7 0 S 21 29 bedeckt ---
Dresden-Flh. 227 989.3 4.3 1.6 4.6 76 0.0 0 0 S 20 35 stark bewölkt ---
Cottbus 69 987.8 4.0 1.6 4.3 92 0.0 2 0 SW 13 24 --- ---
Görlitz 238 989.7 3.6 1.3 4.1 83 0.0 0 0 S 22 30 Regen ---
Aachen 231 984.8 4.8 3.8 7.4 91 0.6 4 0 W 42 78 Regen Sturmböen
Nürburg 485 983.0 4.8 1.3 4.8 95 0.5 2 0 SW 29 50 Regen Windböen
Köln/Bonn-Flh. 92 981.7 5.7 4.2 6.6 88 0.6 3 0 SW 14 26 leichter Regen ---
Gießen/Wettenberg 203 983.8 3.2 1.4 4.5 95 0.5 4 0 S 18 35 leichter Regen ---
Wasserkuppe 921 ------ -1.2 -1.7 -0.2 99 0.4 11 29 S 54 68 leichter Schneefall Sturmböen
Meiningen 450 987.1 0.9 0.1 2.5 96 0.4 3 2 S 20 35 leichter Schneefall ---
Erfurt 316 985.6 3.6 1.4 3.9 80 0.0 0 0 S 27 38 bedeckt ---
Gera 311 987.9 3.7 1.8 4.0 82 0.0 0 0 S 24 39 --- ---
Fichtelberg 1213 ------ -3.0 -3.3 -2.4 94 ---- --- 20 SW 53 76 gefrierender Nebel Sturmböen
Trier 265 986.2 7.3 3.5 7.4 93 0.5 3 0 SW 30 51 Regen Windböen
Hahn-Flh. 497 984.2 5.8 1.9 5.9 94 0.2 2 0 SW 32 50 leichter Regen ---
Frankfurt/M-Flh. 112 985.9 4.5 4.2 6.6 94 0.1 3 0 S 20 39 leichter Regen ---
OF-Wetterpark 119 985.6 4.8 4.1 6.2 94 0.2 3 0 S 17 31 Regen ---
Würzburg 268 988.6 3.1 2.8 4.8 91 0.1 3 0 SW 16 27 Regen ---
Bamberg 239 989.5 2.0 2.0 4.8 91 1.0 3 0 SO 14 33 leichter Regen ---
Hof 567 989.2 1.3 0.9 2.0 89 0.0 2 0 S 21 35 Niederschlag ---
Weiden 438 991.4 2.0 1.7 2.8 86 0.0 1 0 S 15 29 --- ---
Saarbrücken-Flh. 320 988.2 6.7 3.1 6.7 93 0.6 5 0 SW 34 60 leichter Regen Windböen
Karlsruhe-Rheinst. 116 988.6 7.0 5.3 7.1 87 0.4 2 0 SW 39 58 leichter Regen Windböen
Mannheim 96 987.7 5.5 4.9 7.1 90 0.0 1 0 S 28 46 leichter Regen ---
Stuttgart-Flh. 371 990.0 4.5 2.9 4.7 89 0.1 1 0 S 14 31 leichter Regen ---
Öhringen 276 988.8 5.1 4.3 5.8 86 0.2 2 0 SW 19 35 leichter Regen ---
Nürnberg-Flh. 314 990.0 2.0 2.0 4.3 93 1.0 4 0 SO 19 33 leichter Regen ---
Regensburg 366 992.8 2.1 2.1 3.5 86 0.0 1 0 S 12 27 leichter Schneefall ---
Straubing 351 993.5 4.0 0.4 5.0 67 0.0 0 0 SW 14 30 --- ---
Großer Arber 1436 ------ -4.6 -4.6 -3.1 96 0.0 4 67 SW 51 73 Niederschlag Sturmböen
Lahr 155 992.5 8.2 5.5 8.5 81 0.2 1 0 SW 26 55 Regen Windböen
Freudenstadt 797 ------ 3.3 0.1 3.6 94 0.8 14 18 W 45 82 leichter Regen Sturmböen
Stötten 734 990.6 1.3 0.2 2.0 97 0.4 3 5 SW 35 52 Regen Windböen
Augsburg 462 992.1 2.5 2.1 4.2 90 0.1 2 0 S 23 40 Regen ---
München-Flh. 444 993.9 1.2 1.2 5.0 95 0.7 1 0 S 19 55 leichter Schneefall Windböen
Fürstenzell 476 ------ --- --- --- --- ---- --- --- -- --- --- --- ---
Feldberg/Schw. 1486 ------ 0.0 -4.3 0.0 98 1.1 3 --- W 77 133 leichter Schneefall Orkanböen
Konstanz 443 993.3 6.1 3.8 6.1 79 0.0 0 0 SW 27 51 leichter Regen Windböen
Kempten 705 993.3 3.9 1.0 4.0 88 0.5 2 0 SW 18 39 Regen ---
Oberstdorf 806 ------ 0.5 -3.4 3.4 96 0.3 4 6 S 9 16 Regen ---
Zugspitze 2960 ------ -7.1 -14.3 -7.1 92 ---- --- 120 W 43 102 leichter Schneefall schwere Sturmböen
Hohenpeißenberg 977 ------ 2.6 -0.7 2.6 75 0.0 0 4 SW 27 45 --- ---

                                                                                          Tabelle: 19 : 00 UHR   

STATIONHÖHELUFTD.TEMP.T-MinT-MaxU%RR1RR12SSSDDFFFXWetter+WolkenBöen
UFS TW Ems 0 ------ --- --- --- --- ---- --- --- -- --- --- --- ---
UFS Deutsche Bucht 26 ------ --- --- --- --- ---- --- --- -- --- --- --- ---
Helgoland 4 986.5 7.1 5.4 8.1 75 0.2 7 0 W 41 63 Regen Windböen
List/Sylt 26 982.8 6.6 4.8 6.9 70 0.0 7 0 W 50 73 --- Sturmböen
Schleswig 43 985.7 4.9 2.9 5.3 86 0.0 5 0 SW 23 42 --- ---
Leuchtturm Kiel 5 985.3 5.5 3.2 5.5 79 ---- --- --- SW 60 81 --- Sturmböen
Kiel 27 986.1 4.7 3.2 5.4 88 0.2 7 0 SW 30 53 leichter Regen Windböen
Fehmarn 3 986.0 5.7 2.8 5.9 81 0.0 2 0 SW 37 69 leichter Regen Sturmböen
Arkona 42 987.0 3.9 1.1 3.9 94 0.0 1 0 SW 37 49 Regen ---
Norderney 11 988.2 5.8 4.5 7.1 82 0.0 5 0 SW 28 47 Regen ---
Leuchtt. Alte Weser 32 986.9 6.6 4.3 6.6 76 ---- --- --- SW 54 --- --- ---
Cuxhaven 5 987.6 6.2 4.1 6.3 78 0.2 3 0 SW 19 47 Regen ---
Hamburg-Flh 11 988.8 5.1 3.5 6.2 79 0.0 1 0 SW 23 36 stark bewölkt ---
Schwerin 59 989.6 4.2 2.2 4.7 84 0.0 1 0 SW 20 32 Regen ---
Rostock 4 988.0 4.9 1.4 5.3 80 0.0 0 0 SW 21 37 --- ---
Greifswald 2 988.9 4.5 0.7 4.7 85 0.0 3 0 SW 16 33 bewölkt ---
Emden 0 989.2 5.0 4.3 6.9 80 0.0 3 0 SW 21 42 --- ---
Bremen-Flh. 5 989.8 5.7 3.9 7.1 78 0.0 0 0 SW 30 42 bedeckt ---
Lüchow 17 ------ --- --- --- --- ---- --- --- -- --- ---   ---
Marnitz 81 990.7 4.0 1.5 4.6 87 ---- --- 0 SW 17 36 --- ---
Waren 70 990.5 4.3 1.4 4.6 85 0.0 1 0 SW 18 35 --- ---
Neuruppin 38 992.5 3.7 1.6 4.7 87 0.0 3 0 SW 13 32 --- ---
Angermünde 56 992.3 4.1 1.5 4.5 84 0.0 3 0 SW 21 40 --- ---
Münster/Osnabr.-Flh. 48 993.2 5.1 3.5 7.2 90 0.2 3 0 SW 49 68 kräftiger Regenschauer Sturmböen
Hannover-Flh. 59 992.0 5.0 2.5 6.9 86 0.1 4 0 S 21 46 Regen ---
Magdeburg 76 994.1 5.8 3.1 6.3 70 0.0 4 0 SW 17 30 --- ---
Potsdam 81 994.2 2.9 2.6 4.8 95 0.0 5 0 SW 23 35 bewölkt ---
Berlin-Tegel 37 993.7 4.9 2.7 5.2 83 0.0 4 0 SW 19 30 stark bewölkt ---
Berlin-Tempelhof 48 994.2 4.3 2.4 5.1 89 0.0 5 --- SW 15 24 --- ---
Berlin-Dahlem 51 994.3 3.9 2.2 4.7 --- ---- 5 0 SW 18 --- stark bewölkt ---
Lindenberg 91 994.9 3.5 2.8 4.2 93 0.0 5 0 SW 18 28 bewölkt ---
Düsseldorf-Flh. 45 997.3 6.5 3.8 7.3 67 0.0 4 0 W 36 61 gering bewölkt Windböen
Essen 150 997.0 5.4 3.2 6.3 73 0.0 10 0 W 27 63 --- Windböen
Kahler Asten 839 ------ 0.0 -1.1 0.1 96 0.0 11 26 W 50 104 kräftiger Schneefall schwere Sturmböen
Bad Lippspringe 157 994.1 4.8 2.7 6.1 82 0.4 6 0 SW 24 47 Regen ---
Fritzlar 174 996.5 5.4 2.7 6.5 86 ---- 5 0 SW 32 --- leichter Regen ---
Brocken 1142 ------ -2.3 -2.8 -2.1 97 ---- 10 28 SW 75 90 Schneefall Sturmböen
Leipzig-Flh. 142 996.4 6.0 3.5 6.3 68 0.0 2 0 SW 38 53 bedeckt Windböen
Dresden-Flh. 227 998.3 5.5 3.7 6.1 67 0.0 1 0 SW 26 53 stark bewölkt Windböen
Cottbus 69 996.1 5.0 3.8 6.0 79 0.0 3 0 SW 18 42 --- ---
Görlitz 238 998.4 5.0 2.4 5.1 79 0.0 3 0 W 21 44 Regen ---
Aachen 231 998.7 5.6 4.4 6.9 71 0.0 2 0 SW 33 58 --- Windböen
Nürburg 485 1000.0 4.1 2.2 5.8 80 0.1 3 0 W 29 67 Regen Sturmböen
Köln/Bonn-Flh. 92 999.3 6.1 4.3 8.2 74 0.0 2 0 W 26 54 gering bewölkt Windböen
Gießen/Wettenberg 203 997.8 6.6 3.2 6.7 81 0.1 5 0 SW 42 59 leichter Regen Windböen
Wasserkuppe 921 ------ 0.5 -1.3 0.6 100 0.0 4 23 SW 63 92 Regen schwere Sturmböen
Meiningen 450 998.6 3.5 0.2 4.6 93 0.5 4 0 S 24 41 leichter Regen ---
Erfurt 316 996.7 4.0 3.0 6.1 86 0.1 0 0 SW 35 52 leichter Regen Windböen
Gera 311 998.2 5.2 2.9 6.2 74 0.0 0 0 SW 30 44 leichter Regen ---
Fichtelberg 1213 ------ -1.8 -3.2 -1.4 95 ---- --- 25 W 64 93 gefrierender Nebel schwere Sturmböen
Trier 265 1001.7 7.0 5.1 8.3 75 0.0 2 0 SW 34 59 Regen Windböen
Hahn-Flh. 497 1000.5 5.2 1.7 6.3 83 0.1 2 0 W 37 78 --- Sturmböen
Frankfurt/M-Flh. 112 1000.2 8.3 4.4 8.9 69 0.0 1 0 SW 33 48 Regen ---
OF-Wetterpark 119 999.7 8.2 4.7 8.7 71 0.0 1 0 SW 26 51 Regen Windböen
Würzburg 268 1000.9 7.4 3.1 8.3 63 0.0 1 0 W 34 61 --- Windböen
Bamberg 239 1001.3 7.4 1.9 8.0 64 0.0 5 0 S 18 31 Regen ---
Hof 567 1000.3 2.4 0.4 3.8 91 0.9 5 0 S 18 34 leichter Regen ---
Weiden 438 1002.6 4.7 0.4 6.4 77 0.0 5 0 SW 14 35 Regen ---
Saarbrücken-Flh. 320 1003.5 7.3 4.8 8.2 77 0.0 2 0 SW 32 47 stark bewölkt ---
Karlsruhe-Rheinst. 116 1003.1 9.6 7.0 10.3 58 0.0 1 0 SW 33 49 leichter Regen ---
Mannheim 96 1002.0 9.5 5.5 9.7 62 0.0 0 0 SW 22 42 Regen ---
Stuttgart-Flh. 371 1004.2 7.9 4.6 8.1 54 0.0 1 0 S 14 35 stark bewölkt ---
Öhringen 276 1002.5 8.0 4.9 8.7 58 0.0 1 0 SW 21 44 --- ---
Nürnberg-Flh. 314 1002.4 6.4 2.0 8.5 66 0.0 5 0 S 22 35 bedeckt ---
Regensburg 366 1004.2 5.5 1.1 8.0 72 0.0 3 0 S 10 24 --- ---
Straubing 351 1004.3 6.8 1.7 9.4 62 0.0 2 0 SW 17 31 --- ---
Großer Arber 1436 ------ -2.6 -4.7 -1.4 100 0.0 4 57 SW 48 68 gefrierender Nebel Sturmböen
Lahr 155 1005.2 10.4 8.2 11.1 57 0.0 0 0 S 26 41   ---
Freudenstadt 797 ------ 4.7 2.3 4.7 71 0.0 4 11 SW 31 62 Regen Windböen
Stötten 734 1003.9 5.1 1.3 5.1 60 0.0 0 0 SW 50 72 Regen Sturmböen
Augsburg 462 1004.4 7.7 2.5 8.5 56 0.0 1 0 SW 33 48 --- ---
München-Flh. 444 1004.8 7.2 1.1 9.2 53 0.0 2 0 SW 30 46 stark bewölkt ---
Fürstenzell 476 ------ --- --- --- --- ---- --- --- -- --- --- --- ---
Feldberg/Schw. 1486 ------ -0.1 -2.7 0.2 96 1.9 9 --- SW 73 102 Schneefall schwere Sturmböen
Konstanz 443 1007.1 9.4 6.2 9.7 60 ---- --- 0 SW 27 48 --- ---
Kempten 705 1007.2 4.9 3.9 6.7 68 0.0 5 0 SW 6 17 --- ---
Oberstdorf 806 ------ 0.2 0.1 7.7 93 0.0 5 2 S 6 14 --- ---
Zugspitze 2960 ------ -9.6 -10.4 -6.9 81 ---- --- --- W 61 111 leichter Schneefall orkanartige böen
Hohenpeißenberg 977 ------ 4.2 2.2 5.0 64 0.0 1 0 SW 40 68 --- Sturmböen

 

  • Wetterzustand
  • Windrichtung und -geschwindigkeit
  • Luftdruck
  • relative Luftfeuchtigkeit
  • Sichtweite
  • Gesamtbedeckungsgrad
  • Niederschlag
  • Sonnenscheindauer

 Höhe:     m über NN
Luftd.:   auf Meereshöhe reduzierter Luftdruck in hPa
TEMP.:   Lufttemperatur in Grad Celsius
T-MIN:   Minimumtemperatur der Luft in 2m Höhe in Grad Celsius, von 18 UTC Vortag bis 06 UTC heute
T-MAX:  Maximumtemperatur der Luft in 2m Höhe in Grad Celsius, von 18 UTC Vortag bis 06 UTC heute
RR1:     Niederschlagsmenge, einstündig, mm ist gleich Liter pro
RR12:   Niederschlagsmenge, 12 stündig, 18 UTC Vortag bis 06 UTC heute in mm ist gleich Liter pro
SSS:     Gesamtschneehöhe
DD:      Windrichtung
FF:       Windgeschwindigkeit letztes 10-Minutenmittel in km/h
FX:       höchste Windspitze während der letzten Stunde in km/h
---:      Wert nicht vorhanden

 

2009-2019

Unwetterwarnungen

 

  Radarbild           

aktueller Radarfilm Deutschland

  Europa-Meteoalarm